Time;durP1;ratioP1;P1;durP2;ratioP2;P2;SDS_P1;SDS_P2;PMS_P1;PMS_P2;Temp;Humidity;BMP_temperature;BMP_pressure;BME280_temperature;BME280_humidity;BME280_pressure;Samples;Min_cycle;Max_cycle;Signal;HPM_P1;HPM_P2
2022/06/10 00:01:12;;;;;;;10.85;4.00;;;;;;;17.43;68.91;98446.16;4962035;28;20026;-91
2022/06/10 00:03:38;;;;;;;6.22;3.92;;;;;;;17.40;69.48;98449.53;4961970;28;20018;-90
2022/06/10 00:06:06;;;;;;;5.05;4.10;;;;;;;17.41;68.77;98453.03;4978098;28;20395;-90
2022/06/10 00:08:33;;;;;;;4.47;4.03;;;;;;;17.30;69.04;98447.22;4962169;28;20511;-91
2022/06/10 00:11:00;;;;;;;5.25;3.88;;;;;;;17.37;69.03;98461.88;4977830;28;20081;-92
2022/06/10 00:13:27;;;;;;;4.57;3.75;;;;;;;17.37;69.40;98475.50;4961777;28;20035;-92
2022/06/10 00:15:54;;;;;;;5.82;3.90;;;;;;;17.26;69.71;98466.16;4961701;28;20026;-92
2022/06/10 00:18:19;;;;;;;6.10;4.78;;;;;;;17.26;69.34;98457.97;4961704;28;20026;-91
2022/06/10 00:20:45;;;;;;;6.10;4.30;;;;;;;17.27;69.26;98456.06;4961447;28;20049;-92
2022/06/10 00:23:10;;;;;;;7.45;4.20;;;;;;;17.30;69.63;98469.78;4961377;28;20030;-93
2022/06/10 00:25:36;;;;;;;4.82;4.28;;;;;;;17.15;70.07;98464.97;4961765;28;20034;-92
2022/06/10 00:28:02;;;;;;;6.65;4.10;;;;;;;17.08;69.96;98460.09;4961611;28;20035;-92
2022/06/10 00:30:29;;;;;;;6.20;4.43;;;;;;;17.08;70.09;98467.44;4961072;28;20042;-92
2022/06/10 00:32:55;;;;;;;6.63;4.30;;;;;;;17.06;70.68;98467.78;4977463;28;20030;-92
2022/06/10 00:35:21;;;;;;;5.57;4.50;;;;;;;17.01;70.49;98456.31;4961217;28;20057;-90
2022/06/10 00:37:46;;;;;;;11.18;4.70;;;;;;;16.95;70.57;98461.97;4977346;28;20046;-91
2022/06/10 00:40:21;;;;;;;5.30;4.70;;;;;;;16.84;71.19;98455.31;4977444;28;20476;-93
2022/06/10 00:42:46;;;;;;;5.97;4.38;;;;;;;16.97;70.78;98461.59;4962494;28;20117;-92
2022/06/10 00:45:50;;;;;;;4.90;4.15;;;;;;;16.97;70.64;98475.22;4961102;28;20034;-92
2022/06/10 00:48:20;;;;;;;4.82;4.32;;;;;;;16.86;70.73;98468.59;4993260;28;20116;-90
2022/06/10 00:50:46;;;;;;;7.35;4.80;;;;;;;16.75;71.34;98457.31;4961631;28;20026;-90
2022/06/10 00:53:13;;;;;;;6.88;4.80;;;;;;;16.73;71.15;98463.06;4961436;28;20034;-91
2022/06/10 00:55:39;;;;;;;6.63;4.63;;;;;;;16.86;70.78;98472.09;4977813;28;20022;-91
2022/06/10 00:58:29;;;;;;;6.13;4.68;;;;;;;16.92;70.50;98473.50;4961228;28;20114;-91
2022/06/10 01:00:54;;;;;;;5.80;4.85;;;;;;;16.76;70.98;98459.66;4977157;28;20026;-90
2022/06/10 01:03:19;;;;;;;5.20;4.50;;;;;;;16.77;71.36;98461.28;4960525;28;20033;-90
2022/06/10 01:05:45;;;;;;;7.93;5.28;;;;;;;16.70;71.33;98457.47;4960956;28;20121;-91
2022/06/10 01:08:12;;;;;;;8.73;5.38;;;;;;;16.62;71.29;98442.84;4976888;28;20073;-92
2022/06/10 01:10:58;;;;;;;5.35;4.85;;;;;;;16.79;71.07;98474.53;4976344;28;20026;-90
2022/06/10 01:13:26;;;;;;;7.20;5.28;;;;;;;16.71;71.37;98473.47;4994021;28;20108;-90
2022/06/10 01:16:11;;;;;;;7.35;4.57;;;;;;;16.71;71.18;98476.19;4976603;28;20088;-91
2022/06/10 01:18:45;;;;;;;5.57;4.88;;;;;;;16.68;71.08;98468.69;4976479;28;20081;-91
2022/06/10 01:21:41;;;;;;;5.95;5.00;;;;;;;16.52;71.50;98467.69;4992996;28;20096;-91
2022/06/10 01:24:19;;;;;;;8.25;4.35;;;;;;;16.49;71.56;98462.91;4992605;28;20042;-91
2022/06/10 01:30:00;;;;;;;5.38;4.57;;;;;;;16.47;71.43;98482.25;4993936;28;20056;-92
2022/06/10 01:32:31;;;;;;;5.22;4.72;;;;;;;16.23;71.54;98454.91;4976484;28;20527;-91
2022/06/10 01:35:06;;;;;;;5.40;4.88;;;;;;;16.43;71.41;98475.09;4961019;28;20034;-91
2022/06/10 01:37:40;;;;;;;6.13;4.45;;;;;;;16.48;71.61;98473.00;4992673;28;20121;-92
2022/06/10 01:40:23;;;;;;;6.90;4.63;;;;;;;16.32;71.85;98478.19;4976653;28;20026;-92
2022/06/10 01:43:02;;;;;;;5.30;4.80;;;;;;;16.33;71.53;98474.38;4961396;28;20022;-91
2022/06/10 01:45:39;;;;;;;6.22;4.93;;;;;;;16.33;71.75;98487.13;4992657;28;20104;-91
2022/06/10 01:48:51;;;;;;;5.93;4.80;;;;;;;16.29;71.75;98481.56;4976373;28;20484;-92
2022/06/10 01:51:34;;;;;;;6.13;4.75;;;;;;;16.36;71.58;98481.84;4992511;28;20061;-91
2022/06/10 01:54:19;;;;;;;7.18;6.05;;;;;;;16.43;70.47;98467.72;4977486;28;20034;-91
2022/06/10 01:56:46;;;;;;;5.95;4.82;;;;;;;16.68;69.98;98484.19;4961363;28;20026;-91
2022/06/10 01:59:19;;;;;;;5.93;4.47;;;;;;;16.63;70.84;98477.03;4960999;28;20121;-90
2022/06/10 02:01:49;;;;;;;5.30;4.78;;;;;;;16.51;70.68;98468.81;4976457;28;20022;-91
2022/06/10 02:04:32;;;;;;;6.78;5.03;;;;;;;16.45;71.03;98468.19;4960569;28;20026;-92
2022/06/10 02:07:00;;;;;;;6.57;4.75;;;;;;;16.34;70.74;98464.28;4961477;28;20062;-92
2022/06/10 02:09:47;;;;;;;6.70;4.93;;;;;;;16.28;70.88;98460.97;4960649;28;20061;-92
2022/06/10 02:12:27;;;;;;;6.85;5.50;;;;;;;16.15;71.08;98462.00;4960670;28;20121;-91
2022/06/10 02:14:56;;;;;;;7.22;5.03;;;;;;;16.22;71.34;98480.50;4960612;28;20022;-91
2022/06/10 02:17:22;;;;;;;6.15;5.07;;;;;;;16.23;71.51;98485.59;4960765;28;20022;-92
2022/06/10 02:19:51;;;;;;;5.68;5.13;;;;;;;16.14;71.29;98482.13;4976633;28;20030;-90
2022/06/10 02:22:24;;;;;;;6.18;4.90;;;;;;;16.06;71.33;98485.66;4963761;28;20090;-91
2022/06/10 02:24:51;;;;;;;7.38;5.13;;;;;;;15.98;71.62;98486.50;4964528;28;20029;-91
2022/06/10 02:27:23;;;;;;;7.43;5.03;;;;;;;16.03;71.56;98494.47;4964238;28;20119;-91
2022/06/10 02:30:39;;;;;;;6.15;4.72;;;;;;;15.93;71.83;98496.41;4964357;28;20129;-92
2022/06/10 02:33:07;;;;;;;7.47;5.32;;;;;;;15.91;72.07;98506.81;4948460;28;20030;-92
2022/06/10 02:35:37;;;;;;;6.63;5.30;;;;;;;15.89;72.39;98509.06;4956393;28;20034;-92
2022/06/10 02:38:25;;;;;;;6.22;4.95;;;;;;;15.75;72.56;98503.84;4980065;28;20022;-93
2022/06/10 02:40:59;;;;;;;8.23;5.30;;;;;;;15.85;72.48;98512.75;4964308;28;20480;-92
2022/06/10 02:43:36;;;;;;;8.00;5.70;;;;;;;15.84;72.53;98516.59;4964370;28;20053;-91
2022/06/10 02:46:01;;;;;;;9.55;5.10;;;;;;;15.89;72.68;98529.97;4963745;28;20684;-92
2022/06/10 02:48:45;;;;;;;5.45;4.93;;;;;;;15.92;72.30;98521.19;4995533;28;20026;-92
2022/06/10 02:51:12;;;;;;;5.80;4.82;;;;;;;15.82;72.32;98494.41;4995711;28;20454;-92
2022/06/10 02:53:38;;;;;;;6.25;4.85;;;;;;;15.87;72.31;98514.00;4964348;28;20014;-90
2022/06/10 02:56:24;;;;;;;7.10;4.95;;;;;;;15.97;72.18;98523.72;4963484;28;20024;-92
2022/06/10 03:01:59;;;;;;;5.93;4.90;;;;;;;16.04;71.09;98520.50;4982166;28;20408;-92
2022/06/10 03:04:43;;;;;;;8.57;4.38;;;;;;;16.13;70.85;98532.94;4995802;28;20026;-92
2022/06/10 03:07:09;;;;;;;9.65;4.80;;;;;;;16.12;70.93;98533.25;4979209;28;20447;-92
2022/06/10 03:09:43;;;;;;;5.50;4.40;;;;;;;16.22;70.67;98543.75;4994947;28;20085;-91
2022/06/10 03:12:15;;;;;;;6.78;5.00;;;;;;;16.26;70.52;98550.13;4995131;28;20026;-92
2022/06/10 03:15:18;;;;;;;9.02;4.53;;;;;;;16.23;70.88;98552.69;4994489;28;20141;-89
2022/06/10 03:17:55;;;;;;;8.27;5.28;;;;;;;16.25;70.70;98551.28;4994632;28;20113;-89
2022/06/10 03:20:20;;;;;;;9.52;5.07;;;;;;;16.13;70.85;98541.09;4979187;28;20015;-93
2022/06/10 03:23:22;;;;;;;10.82;5.13;;;;;;;16.30;70.55;98570.09;4994849;28;20036;-91
2022/06/10 03:25:53;;;;;;;6.88;4.65;;;;;;;16.25;70.95;98564.03;4994599;28;20065;-90
2022/06/10 03:28:42;;;;;;;6.30;5.10;;;;;;;15.98;71.23;98548.94;4963406;28;20116;-90
2022/06/10 03:31:35;;;;;;;7.75;5.00;;;;;;;16.03;71.29;98557.72;4963326;28;20054;-90
2022/06/10 03:34:31;;;;;;;8.98;5.60;;;;;;;16.17;71.92;98571.91;4963253;28;20034;-94
2022/06/10 03:36:58;;;;;;;9.82;4.80;;;;;;;15.94;71.64;98563.19;4971159;28;20037;-94
2022/06/10 03:39:23;;;;;;;6.38;4.78;;;;;;;15.94;71.83;98555.03;4968632;28;20026;-93
2022/06/10 03:42:03;;;;;;;10.07;6.03;;;;;;;15.86;71.73;98555.88;4963243;28;20452;-93
2022/06/10 03:44:29;;;;;;;8.48;5.10;;;;;;;15.96;71.51;98549.31;4963495;28;20530;-93
2022/06/10 03:46:56;;;;;;;6.47;5.00;;;;;;;16.19;71.92;98557.22;4964002;28;20026;-94
2022/06/10 03:49:29;;;;;;;10.93;5.50;;;;;;;16.35;71.29;98569.91;4963439;28;20583;-94
2022/06/10 03:51:55;;;;;;;7.18;5.50;;;;;;;16.43;70.43;98559.31;4964043;28;20037;-94
2022/06/10 03:54:20;;;;;;;7.65;5.50;;;;;;;16.64;70.65;98568.31;4962839;28;20030;-92
2022/06/10 03:56:46;;;;;;;20.00;9.43;;;;;;;16.77;69.39;98556.44;4963098;28;20032;-93
2022/06/10 03:59:14;;;;;;;9.48;5.07;;;;;;;16.94;67.84;98552.03;4963753;28;20513;-94
2022/06/10 04:01:40;;;;;;;9.38;5.53;;;;;;;16.94;68.91;98568.34;4963580;28;20124;-94
2022/06/10 04:04:05;;;;;;;7.55;4.93;;;;;;;17.05;68.86;98563.31;4979207;28;20026;-93
2022/06/10 04:06:32;;;;;;;10.98;5.43;;;;;;;16.83;69.25;98546.19;4963135;28;20072;-94
2022/06/10 04:08:58;;;;;;;17.27;6.90;;;;;;;16.90;69.83;98567.41;4963974;28;20034;-95
2022/06/10 04:11:26;;;;;;;8.65;4.90;;;;;;;16.82;69.64;98557.38;4964049;28;20088;-95
2022/06/10 04:13:52;;;;;;;5.75;4.88;;;;;;;16.89;68.86;98569.34;4963159;28;20030;-94
2022/06/10 04:16:20;;;;;;;7.57;5.00;;;;;;;16.69;69.63;98551.03;4957079;28;20097;-92
2022/06/10 04:18:45;;;;;;;9.50;5.57;;;;;;;16.76;70.40;98560.25;4958106;28;20034;-89
2022/06/10 04:21:11;;;;;;;8.07;5.30;;;;;;;16.75;69.70;98547.81;4958965;28;20034;-91
2022/06/10 04:23:36;;;;;;;11.27;5.63;;;;;;;16.89;69.91;98566.63;4960398;28;20093;-91
2022/06/10 04:26:02;;;;;;;11.35;5.50;;;;;;;16.86;69.45;98564.56;4943943;28;20042;-94
2022/06/10 04:28:28;;;;;;;14.52;6.93;;;;;;;17.00;68.90;98567.03;4959397;28;20031;-92
2022/06/10 04:30:55;;;;;;;12.82;5.47;;;;;;;16.91;69.57;98564.38;4959851;28;20051;-93
2022/06/10 04:33:23;;;;;;;11.00;5.45;;;;;;;17.02;69.49;98570.22;4960895;28;20092;-95
2022/06/10 04:35:50;;;;;;;12.90;6.20;;;;;;;17.02;69.02;98570.22;4963917;28;20150;-95
2022/06/10 04:38:20;;;;;;;8.90;5.82;;;;;;;17.08;69.06;98568.88;4944273;28;20035;-95
2022/06/10 04:40:47;;;;;;;10.63;5.50;;;;;;;17.16;68.53;98570.75;4949829;28;20085;-95
2022/06/10 04:46:12;;;;;;;7.47;5.40;;;;;;;17.56;67.27;98585.78;5021557;23;20066;-91
2022/06/10 04:48:41;;;;;;;12.57;5.53;;;;;;;17.53;67.16;98565.47;4958579;28;20042;-91
2022/06/10 04:51:06;;;;;;;11.25;6.85;;;;;;;17.67;66.79;98572.56;4990068;28;20038;-93
2022/06/10 04:53:32;;;;;;;14.02;6.18;;;;;;;17.74;66.37;98580.97;4961945;28;20031;-92
2022/06/10 04:55:58;;;;;;;14.43;5.90;;;;;;;17.91;66.34;98591.72;4948140;28;20041;-92
2022/06/10 04:58:24;;;;;;;12.45;6.18;;;;;;;17.95;66.50;98592.66;4949508;28;20031;-93
2022/06/10 05:00:54;;;;;;;14.18;5.88;;;;;;;17.97;66.02;98598.56;4973175;28;20099;-93
2022/06/10 05:03:20;;;;;;;7.07;5.50;;;;;;;18.02;65.98;98585.84;4962995;28;20030;-92
2022/06/10 05:05:46;;;;;;;12.52;6.38;;;;;;;18.21;65.18;98593.50;4978424;28;20030;-92
2022/06/10 05:08:13;;;;;;;11.20;6.70;;;;;;;18.36;65.15;98598.25;4961653;28;20484;-93
2022/06/10 05:10:39;;;;;;;12.63;7.10;;;;;;;18.35;65.50;98592.03;4953460;28;20039;-90
2022/06/10 05:13:04;;;;;;;26.73;9.68;;;;;;;18.44;65.42;98607.47;4960827;28;20033;-92
2022/06/10 05:15:30;;;;;;;24.88;9.32;;;;;;;18.47;66.48;98613.06;4961285;28;20519;-93
2022/06/10 05:17:56;;;;;;;20.98;8.48;;;;;;;18.57;66.10;98619.97;4964886;28;20034;-94
2022/06/10 05:20:27;;;;;;;16.33;7.22;;;;;;;18.62;67.12;98633.41;4962898;28;20026;-93
2022/06/10 05:22:52;;;;;;;10.68;6.07;;;;;;;18.46;66.55;98610.66;4958971;28;20480;-95
2022/06/10 05:25:18;;;;;;;14.93;6.90;;;;;;;18.58;66.76;98618.84;4953543;28;20026;-93
2022/06/10 05:27:46;;;;;;;13.25;6.47;;;;;;;18.51;66.62;98633.06;4949912;28;20026;-94
2022/06/10 05:30:37;;;;;;;20.52;7.72;;;;;;;18.65;66.17;98631.91;4959870;28;20102;-96
2022/06/10 05:33:03;;;;;;;18.65;7.03;;;;;;;18.65;65.86;98629.97;4966454;28;20100;-92
2022/06/10 05:35:33;;;;;;;16.42;6.78;;;;;;;18.73;67.03;98648.16;4954865;28;20476;-94
2022/06/10 05:38:02;;;;;;;10.30;6.47;;;;;;;18.73;65.83;98631.81;4960294;28;20042;-95
2022/06/10 05:40:28;;;;;;;10.05;6.07;;;;;;;18.89;65.09;98650.25;4959150;28;20023;-95
2022/06/10 05:42:57;;;;;;;11.48;6.43;;;;;;;18.94;65.21;98644.56;4943861;28;20030;-96
2022/06/10 05:45:37;;;;;;;16.05;6.53;;;;;;;18.93;65.75;98641.03;4942047;28;20074;-93
2022/06/10 05:48:03;;;;;;;18.45;8.05;;;;;;;18.96;65.63;98648.53;4946070;28;20051;-94
2022/06/10 05:50:39;;;;;;;13.93;7.50;;;;;;;18.86;65.58;98626.38;4989410;28;20045;-94
2022/06/10 05:53:08;;;;;;;13.80;7.63;;;;;;;19.09;65.27;98645.78;4957828;28;20026;-93
2022/06/10 05:55:33;;;;;;;14.30;7.22;;;;;;;18.99;65.20;98633.44;4958132;28;20121;-92
2022/06/10 05:57:59;;;;;;;14.82;6.93;;;;;;;19.03;64.55;98619.88;4964483;28;20488;-92
2022/06/10 06:00:29;;;;;;;14.20;7.22;;;;;;;19.23;64.01;98631.78;4967306;28;20030;-96
2022/06/10 06:02:55;;;;;;;11.00;7.13;;;;;;;19.25;63.47;98619.38;4982163;28;20034;-94
2022/06/10 06:05:24;;;;;;;17.50;7.43;;;;;;;19.42;62.85;98620.25;4956989;28;20038;-94
2022/06/10 06:07:52;;;;;;;13.57;6.78;;;;;;;19.59;62.52;98639.09;4957998;28;20100;-95
2022/06/10 06:10:22;;;;;;;9.15;6.70;;;;;;;19.77;62.11;98648.59;4971091;28;20039;-94
2022/06/10 06:12:48;;;;;;;34.53;22.83;;;;;;;19.92;61.47;98654.47;4958120;28;20030;-93
2022/06/10 06:15:14;;;;;;;11.45;7.13;;;;;;;19.92;61.61;98659.94;4947659;28;20089;-95
2022/06/10 06:17:40;;;;;;;22.33;7.85;;;;;;;19.93;61.81;98653.34;4964567;28;20026;-94
2022/06/10 06:20:06;;;;;;;23.95;14.18;;;;;;;19.96;61.36;98660.81;4949022;28;20027;-95
2022/06/10 06:22:32;;;;;;;18.15;9.13;;;;;;;19.89;61.99;98661.44;4950149;28;20026;-94
2022/06/10 06:25:20;;;;;;;12.20;8.40;;;;;;;20.06;61.71;98671.25;4956236;28;20057;-95
2022/06/10 06:27:49;;;;;;;13.60;8.43;;;;;;;20.03;61.19;98665.72;4967133;28;20035;-92
2022/06/10 06:30:30;;;;;;;12.40;7.38;;;;;;;20.20;60.89;98670.84;4953805;28;20042;-96
2022/06/10 06:33:17;;;;;;;11.35;8.93;;;;;;;20.42;60.58;98676.88;4958616;28;20084;-92
2022/06/10 06:35:45;;;;;;;14.27;8.00;;;;;;;20.34;60.45;98668.50;4977885;28;20058;-94
2022/06/10 06:38:11;;;;;;;27.33;13.25;;;;;;;20.33;59.65;98645.03;4945739;28;20038;-92
2022/06/10 06:40:42;;;;;;;14.32;7.57;;;;;;;20.42;59.54;98650.34;4945474;28;20027;-93
2022/06/10 06:43:20;;;;;;;16.48;7.20;;;;;;;20.79;58.40;98669.25;4948198;28;20039;-96
2022/06/10 06:45:46;;;;;;;12.10;6.85;;;;;;;20.74;58.18;98632.00;4945368;28;20527;-92
2022/06/10 06:48:12;;;;;;;9.30;6.82;;;;;;;20.95;57.49;98644.63;4945601;28;20031;-94
2022/06/10 06:50:54;;;;;;;18.85;9.20;;;;;;;21.01;58.14;98634.97;4946694;28;20042;-92
2022/06/10 06:53:19;;;;;;;20.88;9.13;;;;;;;21.10;57.71;98638.31;4947960;28;20026;-92
2022/06/10 06:55:45;;;;;;;15.98;8.55;;;;;;;21.16;57.20;98617.72;4963079;28;20484;-90
2022/06/10 06:58:20;;;;;;;32.95;10.20;;;;;;;21.37;57.37;98636.56;4945968;28;20089;-93
2022/06/10 07:01:01;;;;;;;21.08;9.10;;;;;;;21.43;57.29;98639.84;4952672;28;20086;-92
2022/06/10 07:03:34;;;;;;;;;;;;;;;21.53;57.56;98658.44;4948997;28;20457;-92
2022/06/10 07:06:00;;;;;;;18.08;8.38;;;;;;;21.58;57.49;98658.19;4961355;28;19914;-92
2022/06/10 07:08:31;;;;;;;12.82;8.30;;;;;;;21.58;57.81;98641.72;4945257;28;20112;-92
2022/06/10 07:11:19;;;;;;;25.20;12.75;;;;;;;21.75;58.28;98646.00;4950428;28;20055;-95
2022/06/10 07:13:45;;;;;;;14.02;8.35;;;;;;;21.99;56.76;98661.31;4954975;28;20039;-94
2022/06/10 07:16:13;;;;;;;14.48;9.18;;;;;;;22.12;56.56;98651.00;4947235;28;20456;-91
2022/06/10 07:18:39;;;;;;;12.30;7.65;;;;;;;22.31;55.17;98652.16;4945992;28;20575;-91
2022/06/10 07:21:04;;;;;;;8.10;6.47;;;;;;;22.37;54.79;98642.44;4943895;28;20073;-94
2022/06/10 07:23:30;;;;;;;8.80;6.90;;;;;;;22.41;54.58;98648.78;4947398;28;20123;-95
2022/06/10 07:25:55;;;;;;;8.77;6.75;;;;;;;22.27;54.71;98629.38;4951037;28;20030;-93
2022/06/10 07:28:21;;;;;;;7.80;6.85;;;;;;;22.50;53.50;98643.88;4946412;28;20066;-94
2022/06/10 07:30:47;;;;;;;13.38;8.55;;;;;;;22.57;54.01;98654.16;4944794;28;20035;-93
2022/06/10 07:33:13;;;;;;;9.32;7.50;;;;;;;22.60;53.45;98665.22;4961449;28;20030;-92
2022/06/10 07:35:39;;;;;;;9.13;8.23;;;;;;;22.54;53.29;98652.16;4962795;28;20027;-92
2022/06/10 07:38:15;;;;;;;11.50;9.65;;;;;;;22.87;54.22;98678.97;4972205;28;20031;-96
2022/06/10 07:43:44;;;;;;;12.45;8.95;;;;;;;23.00;55.54;98658.38;4973217;28;20121;-93
2022/06/10 07:49:52;;;;;;;12.30;9.15;;;;;;;23.04;55.74;98657.69;4974391;28;20053;-92
2022/06/10 07:52:17;;;;;;;13.65;10.93;;;;;;;23.30;54.70;98670.59;4953334;28;20034;-91
2022/06/10 07:54:43;;;;;;;16.40;9.98;;;;;;;23.31;54.56;98664.75;4944276;28;20397;-92
2022/06/10 07:57:11;;;;;;;13.73;10.45;;;;;;;23.39;54.64;98666.44;4944313;28;20035;-93
2022/06/10 07:59:46;;;;;;;12.93;9.43;;;;;;;23.34;55.02;98650.25;4946755;28;20473;-95
2022/06/10 08:02:29;;;;;;;18.40;10.30;;;;;;;23.44;55.10;98657.06;4948985;28;20031;-96
2022/06/10 08:04:55;;;;;;;15.00;10.93;;;;;;;23.54;54.48;98661.13;4961446;28;20409;-93
2022/06/10 08:07:23;;;;;;;10.80;9.80;;;;;;;23.65;54.06;98661.25;4962812;28;20034;-96
2022/06/10 08:09:49;;;;;;;13.50;10.43;;;;;;;23.68;54.20;98677.81;4957503;28;20026;-94
2022/06/10 08:12:14;;;;;;;15.40;11.23;;;;;;;23.57;54.35;98657.63;4971377;28;20030;-93
2022/06/10 08:14:40;;;;;;;10.35;9.25;;;;;;;23.81;53.61;98661.88;4962376;28;20033;-93
2022/06/10 08:17:07;;;;;;;11.30;10.15;;;;;;;24.02;53.22;98671.56;4979942;28;20025;-94
2022/06/10 08:19:33;;;;;;;31.77;25.45;;;;;;;24.11;52.98;98664.56;4962916;28;20019;-91
2022/06/10 08:24:43;;;;;;;13.48;10.57;;;;;;;24.66;50.43;98674.19;4962363;28;20069;-93
2022/06/10 08:27:08;;;;;;;12.82;9.25;;;;;;;24.85;49.28;98681.41;4959988;28;20537;-92
2022/06/10 08:29:34;;;;;;;70.82;57.70;;;;;;;24.77;49.86;98699.84;4943196;28;20121;-95
2022/06/10 08:32:00;;;;;;;11.40;8.82;;;;;;;24.91;48.78;98697.19;4945500;28;20547;-93
2022/06/10 08:34:26;;;;;;;8.68;7.85;;;;;;;24.95;48.69;98678.75;4944693;28;20026;-91
2022/06/10 08:36:55;;;;;;;12.65;8.95;;;;;;;24.86;48.62;98667.28;4943107;28;20023;-92
2022/06/10 08:39:20;;;;;;;14.25;9.82;;;;;;;24.97;48.29;98673.66;4943972;28;20015;-92
2022/06/10 08:42:08;;;;;;;18.27;11.02;;;;;;;25.01;49.05;98703.97;4943530;28;20484;-95
2022/06/10 08:45:03;;;;;;;10.10;8.68;;;;;;;25.14;47.72;98682.44;4978905;28;20058;-94
2022/06/10 08:47:43;;;;;;;13.75;9.10;;;;;;;24.96;48.47;98671.25;4961985;28;20133;-94
2022/06/10 08:50:42;;;;;;;18.38;16.35;;;;;;;25.18;48.47;98713.53;4960744;28;20043;-94
2022/06/10 08:53:30;;;;;;;20.02;13.15;;;;;;;25.35;47.19;98695.56;4975887;28;20030;-95
2022/06/10 08:56:22;;;;;;;10.20;8.63;;;;;;;25.51;46.49;98695.28;4979267;28;20049;-95
2022/06/10 08:58:53;;;;;;;9.50;8.00;;;;;;;25.58;45.95;98703.56;4987115;28;20023;-95
2022/06/10 09:01:31;;;;;;;8.85;7.88;;;;;;;25.56;45.20;98687.41;4987353;28;20045;-96
2022/06/10 09:04:03;;;;;;;8.23;7.28;;;;;;;25.57;45.64;98694.53;4988124;28;20029;-95
2022/06/10 09:07:10;;;;;;;8.50;6.88;;;;;;;25.68;45.03;98688.28;4986221;28;20057;-95
2022/06/10 09:09:39;;;;;;;42.53;30.70;;;;;;;25.69;44.72;98693.41;4987646;28;20495;-94
2022/06/10 09:12:51;;;;;;;8.70;5.63;;;;;;;25.62;43.71;98671.31;4966966;28;20022;-95
2022/06/10 09:18:32;;;;;;;7.10;6.50;;;;;;;25.39;44.89;98690.88;4995713;28;20435;-95
2022/06/10 09:21:33;;;;;;;13.50;10.38;;;;;;;25.51;44.94;98676.78;4945642;28;20443;-94
2022/06/10 09:24:00;;;;;;;7.93;6.47;;;;;;;25.80;45.29;98693.47;4978844;28;20045;-93
2022/06/10 09:26:29;;;;;;;7.82;7.03;;;;;;;25.91;44.16;98688.78;4962687;28;20100;-92
2022/06/10 09:28:55;;;;;;;8.73;7.05;;;;;;;25.92;44.72;98686.81;4960563;28;20034;-92
2022/06/10 09:32:05;;;;;;;7.47;6.78;;;;;;;26.12;44.83;98699.09;4959219;28;20026;-91
2022/06/10 09:34:46;;;;;;;21.00;16.27;;;;;;;26.19;44.94;98682.59;4939094;29;20105;-93
2022/06/10 09:37:27;;;;;;;11.77;8.57;;;;;;;26.23;45.51;98701.91;4925560;28;20023;-95
2022/06/10 09:42:49;;;;;;;8.48;7.60;;;;;;;26.03;45.49;98704.22;4940292;29;20547;-94
2022/06/10 09:45:47;;;;;;;10.60;9.15;;;;;;;25.91;45.75;98677.75;4938112;29;20032;-94
2022/06/10 09:48:34;;;;;;;9.93;8.77;;;;;;;25.84;46.11;98682.41;4933871;28;20094;-94
2022/06/10 09:51:25;;;;;;;10.00;7.63;;;;;;;26.01;45.70;98695.53;4969177;28;20081;-95
2022/06/10 09:54:28;;;;;;;9.73;8.82;;;;;;;26.04;46.46;98691.97;4971512;28;20030;-94
2022/06/10 09:57:26;;;;;;;11.05;8.32;;;;;;;25.91;46.98;98677.75;4973543;28;20449;-92
2022/06/10 09:59:57;;;;;;;10.10;8.50;;;;;;;26.05;46.71;98681.75;4966630;28;20140;-92
2022/06/10 10:02:45;;;;;;;10.30;9.30;;;;;;;26.07;47.56;98671.13;4948420;28;20074;-94
2022/06/10 10:05:52;;;;;;;11.90;9.18;;;;;;;26.25;47.00;98682.19;4964140;28;20031;-90
2022/06/10 10:08:45;;;;;;;11.73;9.10;;;;;;;26.37;47.04;98679.06;4979811;28;20046;-92
2022/06/10 10:11:43;;;;;;;12.30;9.60;;;;;;;26.54;45.74;98678.31;4981637;28;20125;-93
2022/06/10 10:14:28;;;;;;;10.52;9.43;;;;;;;26.80;45.72;98679.13;4982594;28;20078;-91
2022/06/10 10:16:57;;;;;;;9.65;8.40;;;;;;;27.06;44.67;98679.91;4987595;28;20636;-92
2022/06/10 10:19:53;;;;;;;12.32;8.65;;;;;;;27.37;44.35;98687.41;4985010;28;20022;-92
2022/06/10 10:22:46;;;;;;;18.42;15.25;;;;;;;27.69;44.08;98691.25;4979775;28;20023;-90
2022/06/10 10:25:20;;;;;;;8.40;7.60;;;;;;;27.54;42.90;98682.22;4984110;28;20027;-91
2022/06/10 10:27:51;;;;;;;9.25;7.30;;;;;;;27.66;42.48;98676.22;4961893;28;20035;-93
2022/06/10 10:30:30;;;;;;;7.88;7.18;;;;;;;27.40;42.48;98661.69;4943941;28;20042;-96
2022/06/10 10:33:03;;;;;;;12.15;8.85;;;;;;;27.44;42.62;98660.91;4967590;28;20034;-92
2022/06/10 10:35:49;;;;;;;9.20;8.32;;;;;;;27.65;42.30;98668.34;4958478;28;20402;-90
2022/06/10 10:38:36;;;;;;;10.18;8.65;;;;;;;27.86;42.06;98667.47;4957453;28;20031;-91
2022/06/10 10:41:33;;;;;;;8.13;7.32;;;;;;;27.90;41.87;98671.03;4974471;28;20034;-93
2022/06/10 10:44:08;;;;;;;12.82;8.48;;;;;;;27.75;43.07;98648.94;4978235;28;20535;-91
2022/06/10 10:46:45;;;;;;;10.77;8.48;;;;;;;27.69;42.69;98631.19;4945944;28;20041;-92
2022/06/10 10:49:20;;;;;;;8.35;7.55;;;;;;;27.49;41.88;98657.72;4946438;28;20042;-94
2022/06/10 10:51:46;;;;;;;11.63;9.07;;;;;;;27.73;42.01;98645.78;4961253;28;20054;-92
2022/06/10 10:54:33;;;;;;;12.35;10.32;;;;;;;28.07;41.29;98658.31;4945932;28;20072;-93
2022/06/10 10:56:59;;;;;;;11.23;10.10;;;;;;;28.16;40.45;98647.56;4981278;28;20041;-94
2022/06/10 10:59:40;;;;;;;11.10;9.70;;;;;;;27.65;40.97;98655.31;4963405;28;20868;-92
2022/06/10 11:02:41;;;;;;;13.80;11.30;;;;;;;27.99;41.05;98650.06;4962100;28;20039;-93
2022/06/10 11:05:31;;;;;;;13.75;11.35;;;;;;;28.04;41.57;98643.28;4995330;28;20022;-92
2022/06/10 11:08:06;;;;;;;11.05;9.32;;;;;;;27.97;39.74;98638.59;4974814;28;20039;-90
2022/06/10 11:10:40;;;;;;;10.80;9.80;;;;;;;27.98;39.31;98628.31;4997308;28;20161;-90
2022/06/10 11:13:06;;;;;;;11.27;9.13;;;;;;;28.00;40.13;98634.22;4963417;28;20062;-91
2022/06/10 11:15:35;;;;;;;12.98;9.93;;;;;;;27.78;40.66;98622.44;4988946;28;20034;-93
2022/06/10 11:18:06;;;;;;;13.35;11.95;;;;;;;27.88;41.92;98610.56;4948078;28;20047;-96
2022/06/10 11:20:41;;;;;;;11.52;10.43;;;;;;;27.92;41.45;98605.81;4946253;28;20109;-94
2022/06/10 11:23:24;;;;;;;19.20;10.45;;;;;;;28.06;41.83;98631.81;4962830;28;20030;-92
2022/06/10 11:32:54;;;;;;;;;;;;;;;27.74;41.86;98624.44;5000573;28;20061;-96
2022/06/10 11:35:32;;;;;;;10.50;9.50;;;;;;;27.50;42.64;98620.59;4990015;28;19914;-92
2022/06/10 11:38:06;;;;;;;11.13;10.02;;;;;;;27.37;42.07;98601.69;4995222;28;20085;-93
2022/06/10 11:40:50;;;;;;;21.20;16.88;;;;;;;27.33;42.88;98602.88;4978650;28;20026;-92
2022/06/10 11:43:35;;;;;;;12.10;10.02;;;;;;;27.16;42.48;98598.94;4964826;28;20470;-94
2022/06/10 11:46:18;;;;;;;11.02;9.93;;;;;;;27.20;42.66;98599.72;4968059;28;20030;-96
2022/06/10 11:48:54;;;;;;;11.23;9.43;;;;;;;27.25;42.21;98615.94;4981987;28;20484;-94
2022/06/10 11:51:35;;;;;;;11.10;10.07;;;;;;;27.28;42.90;98626.19;4964009;28;20038;-93
2022/06/10 11:54:17;;;;;;;;;;;;;;;27.17;44.83;98625.41;4980905;28;20037;-95
2022/06/10 12:00:08;;;;;;;13.95;10.93;;;;;;;26.69;47.35;98607.34;4984335;28;20044;-95
2022/06/10 12:02:43;;;;;;;14.98;11.65;;;;;;;26.16;49.82;98633.69;4983089;28;20053;-96
2022/06/10 12:05:27;;;;;;;13.38;11.82;;;;;;;25.68;51.14;98633.13;4997299;28;20026;-93
2022/06/10 12:08:25;;;;;;;14.10;12.63;;;;;;;25.07;53.47;98628.06;4967301;28;20030;-94
2022/06/10 12:11:06;;;;;;;15.57;11.52;;;;;;;24.39;55.74;98614.53;4976417;28;20096;-93
2022/06/10 12:13:41;;;;;;;13.10;11.80;;;;;;;24.05;56.75;98640.53;4981750;28;20065;-95
2022/06/10 12:16:07;;;;;;;12.02;10.82;;;;;;;23.78;58.04;98652.44;4965556;28;20034;-93
2022/06/10 12:18:46;;;;;;;17.00;11.45;;;;;;;23.25;59.01;98651.72;4964157;28;20081;-93
2022/06/10 12:21:17;;;;;;;12.95;11.43;;;;;;;22.89;60.58;98653.88;4949062;28;20027;-92
2022/06/10 12:23:45;;;;;;;12.52;11.23;;;;;;;22.93;61.02;98657.47;4946863;28;20035;-94
2022/06/10 12:26:43;;;;;;;14.60;10.98;;;;;;;22.61;62.34;98668.72;4963753;28;20041;-95
2022/06/10 12:29:40;;;;;;;12.40;10.75;;;;;;;22.67;62.77;98678.25;4947158;28;20046;-93
2022/06/10 12:32:43;;;;;;;11.85;10.65;;;;;;;22.38;63.92;98661.28;4976391;28;20049;-94
2022/06/10 12:35:34;;;;;;;13.73;11.75;;;;;;;22.38;63.36;98677.75;4946373;28;20134;-94
2022/06/10 12:38:03;;;;;;;12.47;11.17;;;;;;;22.29;63.38;98657.22;4959416;28;20051;-93